F/V Oceanis — FHLH — position and weather

sailwx.info

Track history (hours):
 
Tides and Currents Weather Stations Pressure Air Temp Water Temp Dewpoint Dewpoint Depression Visibility Wind Speed Wind Dir Waves Ship Positions

F/V Oceanis

Last reported at 2017-Sep-20 13:56 UTC. Time now 2017-Sep-21 14:09 UTC.
Position N 44°39' W 001°09'.

Type: Other ship. MMSI: 228385000.

Date/timePositionNaut miles runAvg speedWind from/ knotsBaromVisibWave heightAir tempDewpointWater temp
2017-Sep-20 13:56N 44°39' W 001°09'3 5.9
2017-Sep-20 13:30N 44°40' W 001°12'510.2
2017-Sep-20 13:00N 44°35' W 001°15'3 5.3
2017-Sep-20 12:30N 44°36' W 001°18'4 8.7
2017-Sep-20 12:00N 44°41' W 001°19'4 8.6
2017-Sep-20 11:30N 44°45' W 001°19'4 8.3
2017-Sep-20 11:00N 44°49' W 001°20'2 3.6
2017-Sep-20 10:30N 44°51' W 001°20'0 0.2
2017-Sep-20 09:48N 44°51' W 001°21'1 2.7
2017-Sep-20 09:30N 44°50' W 001°21'1 2.3
2017-Sep-20 09:00N 44°51' W 001°21'0 0.6
2017-Sep-20 08:30N 44°51' W 001°21'1 1.2
2017-Sep-20 08:01N 44°52' W 001°22'2 3.4
2017-Sep-20 07:26N 44°50' W 001°22'1 1.4
2017-Sep-20 06:49N 44°51' W 001°22'1 1.6
2017-Sep-20 06:17N 44°50' W 001°22'1 2.9
2017-Sep-20 06:01N 44°51' W 001°21'1 0.9
2017-Sep-20 04:52N 44°50' W 001°22'1 2.3
2017-Sep-20 04:30N 44°51' W 001°23'1 2.6
2017-Sep-20 04:00N 44°52' W 001°22'0 0.0
2017-Sep-20 03:30N 44°52' W 001°22'0 0.0
2017-Sep-20 00:43N 44°52' W 001°22'0 0.1
2017-Sep-20 00:30N 44°52' W 001°22'0 0.1
2017-Sep-20 00:00N 44°52' W 001°22'0 0.1
2017-Sep-19 23:30N 44°52' W 001°22'0 0.1
2017-Sep-19 23:00N 44°52' W 001°22'0 0.0
2017-Sep-19 22:30N 44°52' W 001°22'0 0.0
2017-Sep-19 22:00N 44°52' W 001°22'0 0.1
2017-Sep-19 21:30N 44°52' W 001°22'0 0.0
2017-Sep-19 21:00N 44°52' W 001°22'0 0.0
2017-Sep-19 20:30N 44°52' W 001°22'0 0.0
2017-Sep-19 19:59N 44°52' W 001°22'2 3.7
2017-Sep-19 19:28N 44°53' W 001°25'4 0.3
2017-Sep-19 05:25N 44°50' W 001°22'1 2.3
2017-Sep-19 05:00N 44°51' W 001°21'1 2.1
2017-Sep-19 04:30N 44°50' W 001°22'1 2.9
2017-Sep-19 04:00N 44°51' W 001°21'1 2.3
2017-Sep-19 03:30N 44°50' W 001°21'0 0.3
2017-Sep-19 03:00N 44°50' W 001°21'2 3.3
2017-Sep-19 02:23N 44°52' W 001°22'1 2.1
2017-Sep-19 02:00N 44°53' W 001°22'1 1.9
2017-Sep-19 01:30N 44°53' W 001°22'0 0.8
2017-Sep-19 01:00N 44°53' W 001°22'0 0.4
2017-Sep-19 00:30N 44°53' W 001°22'1 2.4
2017-Sep-19 00:00N 44°52' W 001°22'0 0.6
2017-Sep-18 23:30N 44°52' W 001°22'1 1.6
2017-Sep-18 22:58N 44°53' W 001°22'1 2.8
2017-Sep-18 22:30N 44°52' W 001°22'1 2.1
2017-Sep-18 22:00N 44°53' W 001°21'1 2.0
2017-Sep-18 21:30N 44°54' W 001°21'2 4.0
2017-Sep-18 21:00N 44°52' W 001°21'0 0.5
2017-Sep-18 20:30N 44°52' W 001°22'0 0.4
2017-Sep-18 20:00N 44°52' W 001°22'0 0.4
2017-Sep-18 19:29N 44°52' W 001°22'4 4.5
2017-Sep-18 18:30N 44°47' W 001°22'4 7.9
2017-Sep-18 18:00N 44°44' W 001°21'4 7.8
2017-Sep-18 17:30N 44°40' W 001°20'4 8.0
2017-Sep-18 17:00N 44°36' W 001°19'3 5.6
2017-Sep-18 16:30N 44°35' W 001°15'5 9.7
2017-Sep-18 16:00N 44°40' W 001°12'2 0.1
2017-Sep-17 14:42N 44°39' W 001°09'0 0.0
2017-Sep-17 14:30N 44°39' W 001°09'0 0.0
2017-Sep-17 14:00N 44°39' W 001°09'1 1.9
2017-Sep-17 13:30N 44°40' W 001°10'4 8.9
2017-Sep-17 13:00N 44°37' W 001°14'4 8.0
2017-Sep-17 12:31N 44°34' W 001°18'4 8.3
2017-Sep-17 12:00N 44°38' W 001°19'4 8.5
2017-Sep-17 11:30N 44°42' W 001°19'4 8.4
2017-Sep-17 11:00N 44°47' W 001°21'6 8.1
2017-Sep-17 10:19N 44°52' W 001°22'1 2.7
2017-Sep-17 10:00N 44°53' W 001°22'1 2.0
2017-Sep-17 09:30N 44°52' W 001°22'0 0.5
2017-Sep-17 09:00N 44°52' W 001°21'1 2.0
2017-Sep-17 08:26N 44°53' W 001°22'1 1.2
2017-Sep-17 07:53N 44°52' W 001°22'0 1.2
2017-Sep-17 07:29N 44°52' W 001°22'1 0.5
2017-Sep-17 06:01N 44°51' W 001°23'0 2.9
2017-Sep-17 06:00N 44°52' W 001°23'1 1.5
2017-Sep-17 05:11N 44°52' W 001°25'0 2.7
2017-Sep-17 05:00N 44°52' W 001°25'0 0.8
2017-Sep-17 04:24N 44°52' W 001°25'0 0.3
2017-Sep-17 03:30N 44°52' W 001°25'1 1.6
2017-Sep-17 02:56N 44°53' W 001°25'0 0.0
2017-Sep-17 01:51N 44°53' W 001°25'0 0.0
2017-Sep-17 01:14N 44°53' W 001°25'0 0.2
2017-Sep-17 00:59N 44°53' W 001°25'0 0.1
2017-Sep-17 00:10N 44°53' W 001°25'0 0.0
2017-Sep-16 23:53N 44°53' W 001°25'0 0.0
2017-Sep-16 21:08N 44°53' W 001°25'0 0.0
2017-Sep-16 20:58N 44°53' W 001°25'0 0.1
2017-Sep-16 20:29N 44°53' W 001°25'0 0.1
2017-Sep-16 20:00N 44°53' W 001°25'0 0.0
2017-Sep-16 19:26N 44°53' W 001°25'1 0.6
2017-Sep-16 17:38N 44°52' W 001°25'1 6.4
2017-Sep-16 17:30N 44°53' W 001°25'0 0.6
2017-Sep-16 17:00N 44°52' W 001°25'1 1.7
2017-Sep-16 16:13N 44°51' W 001°23'0 1.4
2017-Sep-16 15:59N 44°52' W 001°23'0 0.8
2017-Sep-16 15:24N 44°51' W 001°22'1 3.3
2017-Sep-16 15:00N 44°53' W 001°23'1 1.9
2017-Sep-16 14:19N 44°51' W 001°22'0 1.1
2017-Sep-16 13:56N 44°51' W 001°22'1 1.7
2017-Sep-16 13:30N 44°52' W 001°22'1 1.7
2017-Sep-16 13:00N 44°53' W 001°22'0 0.3
2017-Sep-16 12:28N 44°53' W 001°22'1 1.9
2017-Sep-16 12:00N 44°52' W 001°22'1 1.4
2017-Sep-16 11:30N 44°51' W 001°21'1 2.0
2017-Sep-16 11:00N 44°52' W 001°21'1 1.7
2017-Sep-16 10:30N 44°53' W 001°21'1 2.1
2017-Sep-16 09:59N 44°52' W 001°21'1 1.7
2017-Sep-16 09:30N 44°51' W 001°21'0 0.6
2017-Sep-16 09:00N 44°51' W 001°21'1 0.8
2017-Sep-16 07:26N 44°52' W 001°23'1 0.7
2017-Sep-16 05:51N 44°51' W 001°23'1 2.0
2017-Sep-16 05:12N 44°52' W 001°23'1 2.2
2017-Sep-16 04:57N 44°53' W 001°23'1 0.9
2017-Sep-16 03:48N 44°54' W 001°23'1 2.9
2017-Sep-16 03:30N 44°53' W 001°22'1 2.8
2017-Sep-16 03:00N 44°52' W 001°22'5 6.5
2017-Sep-16 02:16N 44°47' W 001°21'2 7.9
2017-Sep-16 02:00N 44°45' W 001°20'4 7.9
2017-Sep-16 01:30N 44°41' W 001°19'4 7.8
2017-Sep-16 01:00N 44°37' W 001°19'3 7.0
2017-Sep-16 00:30N 44°34' W 001°17'3 6.6
2017-Sep-16 00:00N 44°37' W 001°14'3 7.0
2017-Sep-15 23:30N 44°40' W 001°12'2 4.8
2017-Sep-15 23:00N 44°39' W 001°09'0 0.0
2017-Sep-15 22:30N 44°39' W 001°09'0 0.0
2017-Sep-15 22:00N 44°39' W 001°09'2 3.5
2017-Sep-15 21:30N 44°40' W 001°11'4 8.3
2017-Sep-15 21:00N 44°37' W 001°14'4 7.0
2017-Sep-15 20:30N 44°34' W 001°18'1 1.9
2017-Sep-15 20:00N 44°34' W 001°19'0 0.9
2017-Sep-15 19:31N 44°34' W 001°19'1 2.8
2017-Sep-15 19:00N 44°35' W 001°19'3 5.5
2017-Sep-15 18:30N 44°38' W 001°19'3 5.4
2017-Sep-15 18:00N 44°41' W 001°19'3 5.3
2017-Sep-15 17:30N 44°43' W 001°20'3 5.2
2017-Sep-15 17:00N 44°46' W 001°21'3 5.1
2017-Sep-15 16:30N 44°48' W 001°21'3 5.2
2017-Sep-15 16:00N 44°51' W 001°22'1 1.7
2017-Sep-15 15:17N 44°52' W 001°22'1 1.9
2017-Sep-15 14:47N 44°51' W 001°23'1 1.0
2017-Sep-15 14:05N 44°51' W 001°22'0 4.5
2017-Sep-15 14:00N 44°51' W 001°22'1 1.8
2017-Sep-15 13:30N 44°52' W 001°22'0 0.6
2017-Sep-15 12:54N 44°52' W 001°21'1 3.4
2017-Sep-15 12:30N 44°51' W 001°21'2 2.2
2017-Sep-15 11:42N 44°49' W 001°23'0 1.3
2017-Sep-15 11:30N 44°49' W 001°23'0 0.6
2017-Sep-15 10:58N 44°50' W 001°23'0 0.3
2017-Sep-15 10:28N 44°49' W 001°23'0 0.2
2017-Sep-15 10:00N 44°49' W 001°23'0 0.7
2017-Sep-15 09:30N 44°50' W 001°23'0 0.3
2017-Sep-15 08:57N 44°50' W 001°23'0 0.5
2017-Sep-15 08:21N 44°50' W 001°23'0 0.2
2017-Sep-15 07:58N 44°50' W 001°23'0 0.5
2017-Sep-15 07:28N 44°49' W 001°23'0 0.3
2017-Sep-15 07:01N 44°49' W 001°23'0 0.6
2017-Sep-15 06:30N 44°50' W 001°23'0 0.4
2017-Sep-15 06:00N 44°50' W 001°23'0 0.2
2017-Sep-15 05:30N 44°50' W 001°23'0 0.5
2017-Sep-15 05:00N 44°50' W 001°23'0 0.4
2017-Sep-15 04:31N 44°49' W 001°23'0 0.3
2017-Sep-15 04:00N 44°49' W 001°23'0 0.6
2017-Sep-15 03:30N 44°50' W 001°23'0 0.8
2017-Sep-15 03:00N 44°50' W 001°23'0 0.1
2017-Sep-15 02:30N 44°50' W 001°23'0 0.1
2017-Sep-15 02:00N 44°50' W 001°23'0 0.0
2017-Sep-15 01:30N 44°50' W 001°23'0 0.1
2017-Sep-15 01:00N 44°50' W 001°23'0 0.1
2017-Sep-15 00:30N 44°50' W 001°23'0 0.0
2017-Sep-15 00:00N 44°50' W 001°23'0 0.0
2017-Sep-14 23:30N 44°50' W 001°23'0 0.0
2017-Sep-14 23:00N 44°50' W 001°23'0 0.0
2017-Sep-14 22:30N 44°50' W 001°23'0 0.0
2017-Sep-14 22:00N 44°50' W 001°23'0 0.0
2017-Sep-14 21:30N 44°50' W 001°23'0 0.0
2017-Sep-14 21:00N 44°50' W 001°23'0 0.0
2017-Sep-14 20:30N 44°50' W 001°23'0 0.0
2017-Sep-14 20:00N 44°50' W 001°23'0 0.0
2017-Sep-14 19:30N 44°50' W 001°23'0 0.0
2017-Sep-14 19:00N 44°50' W 001°23'0 0.0
2017-Sep-14 18:30N 44°50' W 001°23'0 0.0
2017-Sep-14 18:00N 44°50' W 001°23'0 0.0
2017-Sep-14 17:29N 44°50' W 001°23'0 0.0
2017-Sep-14 17:00N 44°50' W 001°23'0 0.0
2017-Sep-14 16:30N 44°50' W 001°23'0 0.0
2017-Sep-14 16:00N 44°50' W 001°23'0 0.0
2017-Sep-14 15:30N 44°50' W 001°23'0 0.0
2017-Sep-14 15:00N 44°50' W 001°23'0 0.0
2017-Sep-14 14:30N 44°50' W 001°23'0 0.0
2017-Sep-14 14:00N 44°50' W 001°23'0 0.9
2017-Sep-14 13:30N 44°50' W 001°23'0 0.4
2017-Sep-14 13:00N 44°50' W 001°23'0 0.3
2017-Sep-14 12:30N 44°50' W 001°23'0 0.3
2017-Sep-14 12:00N 44°49' W 001°23'0 0.4
2017-Sep-14 11:30N 44°49' W 001°23'0 0.2
2017-Sep-14 11:01N 44°49' W 001°24'0 0.5
2017-Sep-14 10:30N 44°50' W 001°24'0 0.6
2017-Sep-14 10:00N 44°50' W 001°24'0 0.5
2017-Sep-14 09:31N 44°50' W 001°24'0 0.6
2017-Sep-14 09:00N 44°50' W 001°24'1 1.4
2017-Sep-14 08:28N 44°50' W 001°23'0 0.3
2017-Sep-14 08:00N 44°50' W 001°23'0 0.3
2017-Sep-14 07:30N 44°50' W 001°23'0 0.6
2017-Sep-14 07:00N 44°50' W 001°23'0 0.4
2017-Sep-14 06:30N 44°49' W 001°23'0 0.4
2017-Sep-14 06:01N 44°50' W 001°23'0 0.5
2017-Sep-14 05:30N 44°50' W 001°23'0 0.5
2017-Sep-14 05:01N 44°50' W 001°22'0 0.2
2017-Sep-14 04:30N 44°50' W 001°22'0 0.8
2017-Sep-14 04:00N 44°50' W 001°22'0 0.1
2017-Sep-14 03:30N 44°50' W 001°22'0 0.0
2017-Sep-14 03:00N 44°50' W 001°22'0 0.0
2017-Sep-14 02:30N 44°50' W 001°22'0 0.2
2017-Sep-14 02:00N 44°50' W 001°22'0 0.0
2017-Sep-14 01:30N 44°50' W 001°22'0 0.0
2017-Sep-14 01:00N 44°50' W 001°22'0 0.0
2017-Sep-14 00:30N 44°50' W 001°22'0 0.0
2017-Sep-14 00:00N 44°50' W 001°22'0 0.0
2017-Sep-13 23:30N 44°50' W 001°22'0 0.0
2017-Sep-13 23:00N 44°50' W 001°22'0 0.0
2017-Sep-13 22:30N 44°50' W 001°22'0 0.0
2017-Sep-13 22:00N 44°50' W 001°22'0 0.0
2017-Sep-13 21:30N 44°50' W 001°22'0 0.0
2017-Sep-13 21:00N 44°50' W 001°22'0 0.0
2017-Sep-13 20:30N 44°50' W 001°22'0 0.0
2017-Sep-13 20:00N 44°50' W 001°22'0 0.0
2017-Sep-13 19:30N 44°50' W 001°22'0 0.0
2017-Sep-13 19:00N 44°50' W 001°22'0 0.0
2017-Sep-13 18:30N 44°50' W 001°22'0 0.1
2017-Sep-13 18:00N 44°50' W 001°22'0 0.0
2017-Sep-13 17:29N 44°50' W 001°22'0 0.0
2017-Sep-13 16:59N 44°50' W 001°22'0 0.0
2017-Sep-13 16:29N 44°50' W 001°22'0 0.0
2017-Sep-13 15:59N 44°50' W 001°22'0 0.0
2017-Sep-13 15:30N 44°50' W 001°22'0 0.0
2017-Sep-13 15:00N 44°50' W 001°22'1 2.1
2017-Sep-13 14:30N 44°50' W 001°24'0 0.5
2017-Sep-13 14:00N 44°50' W 001°23'0 0.8
2017-Sep-13 13:31N 44°50' W 001°23'1 1.8
2017-Sep-13 13:00N 44°49' W 001°22'4 7.7
2017-Sep-13 12:31N 44°45' W 001°20'4 7.7
2017-Sep-13 12:00N 44°42' W 001°19'4 8.0
2017-Sep-13 11:30N 44°38' W 001°19'4 7.4
2017-Sep-13 11:00N 44°34' W 001°17'4 8.7
2017-Sep-13 10:30N 44°38' W 001°14'4 8.2
2017-Sep-13 10:01N 44°40' W 001°09'1 1.2
2017-Sep-13 09:30N 44°39' W 001°09'0 0.1
2017-Sep-13 09:00N 44°39' W 001°09'0 0.0
2017-Sep-13 08:30N 44°39' W 001°09'0 0.0
2017-Sep-13 08:00N 44°39' W 001°09'  
Track history (hours):
 
Tides and Currents Weather Stations Pressure Air Temp Water Temp Dewpoint Dewpoint Depression Visibility Wind Speed Wind Dir Waves Ship Positions

F/V Oceanis

Last reported at 2017-Sep-20 13:56 UTC. Time now 2017-Sep-21 14:09 UTC.
Position N 44°39' W 001°09'.

Type: Other ship. MMSI: 228385000.

Date/timePositionNaut miles runAvg speedWind from/ knotsBaromVisibWave heightAir tempDewpointWater temp
2017-Sep-20 13:56N 44°39' W 001°09'3 5.9
2017-Sep-20 13:30N 44°40' W 001°12'510.2
2017-Sep-20 13:00N 44°35' W 001°15'3 5.3
2017-Sep-20 12:30N 44°36' W 001°18'4 8.7
2017-Sep-20 12:00N 44°41' W 001°19'4 8.6
2017-Sep-20 11:30N 44°45' W 001°19'4 8.3
2017-Sep-20 11:00N 44°49' W 001°20'2 3.6
2017-Sep-20 10:30N 44°51' W 001°20'0 0.2
2017-Sep-20 09:48N 44°51' W 001°21'1 2.7
2017-Sep-20 09:30N 44°50' W 001°21'1 2.3
2017-Sep-20 09:00N 44°51' W 001°21'0 0.6
2017-Sep-20 08:30N 44°51' W 001°21'1 1.2
2017-Sep-20 08:01N 44°52' W 001°22'2 3.4
2017-Sep-20 07:26N 44°50' W 001°22'1 1.4
2017-Sep-20 06:49N 44°51' W 001°22'1 1.6
2017-Sep-20 06:17N 44°50' W 001°22'1 2.9
2017-Sep-20 06:01N 44°51' W 001°21'1 0.9
2017-Sep-20 04:52N 44°50' W 001°22'1 2.3
2017-Sep-20 04:30N 44°51' W 001°23'1 2.6
2017-Sep-20 04:00N 44°52' W 001°22'0 0.0
2017-Sep-20 03:30N 44°52' W 001°22'0 0.0
2017-Sep-20 00:43N 44°52' W 001°22'0 0.1
2017-Sep-20 00:30N 44°52' W 001°22'0 0.1
2017-Sep-20 00:00N 44°52' W 001°22'0 0.1
2017-Sep-19 23:30N 44°52' W 001°22'0 0.1
2017-Sep-19 23:00N 44°52' W 001°22'0 0.0
2017-Sep-19 22:30N 44°52' W 001°22'0 0.0
2017-Sep-19 22:00N 44°52' W 001°22'0 0.1
2017-Sep-19 21:30N 44°52' W 001°22'0 0.0
2017-Sep-19 21:00N 44°52' W 001°22'0 0.0
2017-Sep-19 20:30N 44°52' W 001°22'0 0.0
2017-Sep-19 19:59N 44°52' W 001°22'2 3.7
2017-Sep-19 19:28N 44°53' W 001°25'4 0.3
2017-Sep-19 05:25N 44°50' W 001°22'1 2.3
2017-Sep-19 05:00N 44°51' W 001°21'1 2.1
2017-Sep-19 04:30N 44°50' W 001°22'1 2.9
2017-Sep-19 04:00N 44°51' W 001°21'1 2.3
2017-Sep-19 03:30N 44°50' W 001°21'0 0.3
2017-Sep-19 03:00N 44°50' W 001°21'2 3.3
2017-Sep-19 02:23N 44°52' W 001°22'1 2.1
2017-Sep-19 02:00N 44°53' W 001°22'1 1.9
2017-Sep-19 01:30N 44°53' W 001°22'0 0.8
2017-Sep-19 01:00N 44°53' W 001°22'0 0.4
2017-Sep-19 00:30N 44°53' W 001°22'1 2.4
2017-Sep-19 00:00N 44°52' W 001°22'0 0.6
2017-Sep-18 23:30N 44°52' W 001°22'1 1.6
2017-Sep-18 22:58N 44°53' W 001°22'1 2.8
2017-Sep-18 22:30N 44°52' W 001°22'1 2.1
2017-Sep-18 22:00N 44°53' W 001°21'1 2.0
2017-Sep-18 21:30N 44°54' W 001°21'2 4.0
2017-Sep-18 21:00N 44°52' W 001°21'0 0.5
2017-Sep-18 20:30N 44°52' W 001°22'0 0.4
2017-Sep-18 20:00N 44°52' W 001°22'0 0.4
2017-Sep-18 19:29N 44°52' W 001°22'4 4.5
2017-Sep-18 18:30N 44°47' W 001°22'4 7.9
2017-Sep-18 18:00N 44°44' W 001°21'4 7.8
2017-Sep-18 17:30N 44°40' W 001°20'4 8.0
2017-Sep-18 17:00N 44°36' W 001°19'3 5.6
2017-Sep-18 16:30N 44°35' W 001°15'5 9.7
2017-Sep-18 16:00N 44°40' W 001°12'2 0.1
2017-Sep-17 14:42N 44°39' W 001°09'0 0.0
2017-Sep-17 14:30N 44°39' W 001°09'0 0.0
2017-Sep-17 14:00N 44°39' W 001°09'1 1.9
2017-Sep-17 13:30N 44°40' W 001°10'4 8.9
2017-Sep-17 13:00N 44°37' W 001°14'4 8.0
2017-Sep-17 12:31N 44°34' W 001°18'4 8.3
2017-Sep-17 12:00N 44°38' W 001°19'4 8.5
2017-Sep-17 11:30N 44°42' W 001°19'4 8.4
2017-Sep-17 11:00N 44°47' W 001°21'6 8.1
2017-Sep-17 10:19N 44°52' W 001°22'1 2.7
2017-Sep-17 10:00N 44°53' W 001°22'1 2.0
2017-Sep-17 09:30N 44°52' W 001°22'0 0.5
2017-Sep-17 09:00N 44°52' W 001°21'1 2.0
2017-Sep-17 08:26N 44°53' W 001°22'1 1.2
2017-Sep-17 07:53N 44°52' W 001°22'0 1.2
2017-Sep-17 07:29N 44°52' W 001°22'1 0.5
2017-Sep-17 06:01N 44°51' W 001°23'0 2.9
2017-Sep-17 06:00N 44°52' W 001°23'1 1.5
2017-Sep-17 05:11N 44°52' W 001°25'0 2.7
2017-Sep-17 05:00N 44°52' W 001°25'0 0.8
2017-Sep-17 04:24N 44°52' W 001°25'0 0.3
2017-Sep-17 03:30N 44°52' W 001°25'1 1.6
2017-Sep-17 02:56N 44°53' W 001°25'0 0.0
2017-Sep-17 01:51N 44°53' W 001°25'0 0.0
2017-Sep-17 01:14N 44°53' W 001°25'0 0.2
2017-Sep-17 00:59N 44°53' W 001°25'0 0.1
2017-Sep-17 00:10N 44°53' W 001°25'0 0.0
2017-Sep-16 23:53N 44°53' W 001°25'0 0.0
2017-Sep-16 21:08N 44°53' W 001°25'0 0.0
2017-Sep-16 20:58N 44°53' W 001°25'0 0.1
2017-Sep-16 20:29N 44°53' W 001°25'0 0.1
2017-Sep-16 20:00N 44°53' W 001°25'0 0.0
2017-Sep-16 19:26N 44°53' W 001°25'1 0.6
2017-Sep-16 17:38N 44°52' W 001°25'1 6.4
2017-Sep-16 17:30N 44°53' W 001°25'0 0.6
2017-Sep-16 17:00N 44°52' W 001°25'1 1.7
2017-Sep-16 16:13N 44°51' W 001°23'0 1.4
2017-Sep-16 15:59N 44°52' W 001°23'0 0.8
2017-Sep-16 15:24N 44°51' W 001°22'1 3.3
2017-Sep-16 15:00N 44°53' W 001°23'1 1.9
2017-Sep-16 14:19N 44°51' W 001°22'0 1.1
2017-Sep-16 13:56N 44°51' W 001°22'1 1.7
2017-Sep-16 13:30N 44°52' W 001°22'1 1.7
2017-Sep-16 13:00N 44°53' W 001°22'0 0.3
2017-Sep-16 12:28N 44°53' W 001°22'1 1.9
2017-Sep-16 12:00N 44°52' W 001°22'1 1.4
2017-Sep-16 11:30N 44°51' W 001°21'1 2.0
2017-Sep-16 11:00N 44°52' W 001°21'1 1.7
2017-Sep-16 10:30N 44°53' W 001°21'1 2.1
2017-Sep-16 09:59N 44°52' W 001°21'1 1.7
2017-Sep-16 09:30N 44°51' W 001°21'0 0.6
2017-Sep-16 09:00N 44°51' W 001°21'1 0.8
2017-Sep-16 07:26N 44°52' W 001°23'1 0.7
2017-Sep-16 05:51N 44°51' W 001°23'1 2.0
2017-Sep-16 05:12N 44°52' W 001°23'1 2.2
2017-Sep-16 04:57N 44°53' W 001°23'1 0.9
2017-Sep-16 03:48N 44°54' W 001°23'1 2.9
2017-Sep-16 03:30N 44°53' W 001°22'1 2.8
2017-Sep-16 03:00N 44°52' W 001°22'5 6.5
2017-Sep-16 02:16N 44°47' W 001°21'2 7.9
2017-Sep-16 02:00N 44°45' W 001°20'4 7.9
2017-Sep-16 01:30N 44°41' W 001°19'4 7.8
2017-Sep-16 01:00N 44°37' W 001°19'3 7.0
2017-Sep-16 00:30N 44°34' W 001°17'3 6.6
2017-Sep-16 00:00N 44°37' W 001°14'3 7.0
2017-Sep-15 23:30N 44°40' W 001°12'2 4.8
2017-Sep-15 23:00N 44°39' W 001°09'0 0.0
2017-Sep-15 22:30N 44°39' W 001°09'0 0.0
2017-Sep-15 22:00N 44°39' W 001°09'2 3.5
2017-Sep-15 21:30N 44°40' W 001°11'4 8.3
2017-Sep-15 21:00N 44°37' W 001°14'4 7.0
2017-Sep-15 20:30N 44°34' W 001°18'1 1.9
2017-Sep-15 20:00N 44°34' W 001°19'0 0.9
2017-Sep-15 19:31N 44°34' W 001°19'1 2.8
2017-Sep-15 19:00N 44°35' W 001°19'3 5.5
2017-Sep-15 18:30N 44°38' W 001°19'3 5.4
2017-Sep-15 18:00N 44°41' W 001°19'3 5.3
2017-Sep-15 17:30N 44°43' W 001°20'3 5.2
2017-Sep-15 17:00N 44°46' W 001°21'3 5.1
2017-Sep-15 16:30N 44°48' W 001°21'3 5.2
2017-Sep-15 16:00N 44°51' W 001°22'1 1.7
2017-Sep-15 15:17N 44°52' W 001°22'1 1.9
2017-Sep-15 14:47N 44°51' W 001°23'1 1.0
2017-Sep-15 14:05N 44°51' W 001°22'0 4.5
2017-Sep-15 14:00N 44°51' W 001°22'1 1.8
2017-Sep-15 13:30N 44°52' W 001°22'0 0.6
2017-Sep-15 12:54N 44°52' W 001°21'1 3.4
2017-Sep-15 12:30N 44°51' W 001°21'2 2.2
2017-Sep-15 11:42N 44°49' W 001°23'0 1.3
2017-Sep-15 11:30N 44°49' W 001°23'0 0.6
2017-Sep-15 10:58N 44°50' W 001°23'0 0.3
2017-Sep-15 10:28N 44°49' W 001°23'0 0.2
2017-Sep-15 10:00N 44°49' W 001°23'0 0.7
2017-Sep-15 09:30N 44°50' W 001°23'0 0.3
2017-Sep-15 08:57N 44°50' W 001°23'0 0.5
2017-Sep-15 08:21N 44°50' W 001°23'0 0.2
2017-Sep-15 07:58N 44°50' W 001°23'0 0.5
2017-Sep-15 07:28N 44°49' W 001°23'0 0.3
2017-Sep-15 07:01N 44°49' W 001°23'0 0.6
2017-Sep-15 06:30N 44°50' W 001°23'0 0.4
2017-Sep-15 06:00N 44°50' W 001°23'0 0.2
2017-Sep-15 05:30N 44°50' W 001°23'0 0.5
2017-Sep-15 05:00N 44°50' W 001°23'0 0.4
2017-Sep-15 04:31N 44°49' W 001°23'0 0.3
2017-Sep-15 04:00N 44°49' W 001°23'0 0.6
2017-Sep-15 03:30N 44°50' W 001°23'0 0.8
2017-Sep-15 03:00N 44°50' W 001°23'0 0.1
2017-Sep-15 02:30N 44°50' W 001°23'0 0.1
2017-Sep-15 02:00N 44°50' W 001°23'0 0.0
2017-Sep-15 01:30N 44°50' W 001°23'0 0.1
2017-Sep-15 01:00N 44°50' W 001°23'0 0.1
2017-Sep-15 00:30N 44°50' W 001°23'0 0.0
2017-Sep-15 00:00N 44°50' W 001°23'0 0.0
2017-Sep-14 23:30N 44°50' W 001°23'0 0.0
2017-Sep-14 23:00N 44°50' W 001°23'0 0.0
2017-Sep-14 22:30N 44°50' W 001°23'0 0.0
2017-Sep-14 22:00N 44°50' W 001°23'0 0.0
2017-Sep-14 21:30N 44°50' W 001°23'0 0.0
2017-Sep-14 21:00N 44°50' W 001°23'0 0.0
2017-Sep-14 20:30N 44°50' W 001°23'0 0.0
2017-Sep-14 20:00N 44°50' W 001°23'0 0.0
2017-Sep-14 19:30N 44°50' W 001°23'0 0.0
2017-Sep-14 19:00N 44°50' W 001°23'0 0.0
2017-Sep-14 18:30N 44°50' W 001°23'0 0.0
2017-Sep-14 18:00N 44°50' W 001°23'0 0.0
2017-Sep-14 17:29N 44°50' W 001°23'0 0.0
2017-Sep-14 17:00N 44°50' W 001°23'0 0.0
2017-Sep-14 16:30N 44°50' W 001°23'0 0.0
2017-Sep-14 16:00N 44°50' W 001°23'0 0.0
2017-Sep-14 15:30N 44°50' W 001°23'0 0.0
2017-Sep-14 15:00N 44°50' W 001°23'0 0.0
2017-Sep-14 14:30N 44°50' W 001°23'0 0.0
2017-Sep-14 14:00N 44°50' W 001°23'0 0.9
2017-Sep-14 13:30N 44°50' W 001°23'0 0.4
2017-Sep-14 13:00N 44°50' W 001°23'0 0.3
2017-Sep-14 12:30N 44°50' W 001°23'0 0.3
2017-Sep-14 12:00N 44°49' W 001°23'0 0.4
2017-Sep-14 11:30N 44°49' W 001°23'0 0.2
2017-Sep-14 11:01N 44°49' W 001°24'0 0.5
2017-Sep-14 10:30N 44°50' W 001°24'0 0.6
2017-Sep-14 10:00N 44°50' W 001°24'0 0.5
2017-Sep-14 09:31N 44°50' W 001°24'0 0.6
2017-Sep-14 09:00N 44°50' W 001°24'1 1.4
2017-Sep-14 08:28N 44°50' W 001°23'0 0.3
2017-Sep-14 08:00N 44°50' W 001°23'0 0.3
2017-Sep-14 07:30N 44°50' W 001°23'0 0.6
2017-Sep-14 07:00N 44°50' W 001°23'0 0.4
2017-Sep-14 06:30N 44°49' W 001°23'0 0.4
2017-Sep-14 06:01N 44°50' W 001°23'0 0.5
2017-Sep-14 05:30N 44°50' W 001°23'0 0.5
2017-Sep-14 05:01N 44°50' W 001°22'0 0.2
2017-Sep-14 04:30N 44°50' W 001°22'0 0.8
2017-Sep-14 04:00N 44°50' W 001°22'0 0.1
2017-Sep-14 03:30N 44°50' W 001°22'0 0.0
2017-Sep-14 03:00N 44°50' W 001°22'0 0.0
2017-Sep-14 02:30N 44°50' W 001°22'0 0.2
2017-Sep-14 02:00N 44°50' W 001°22'0 0.0
2017-Sep-14 01:30N 44°50' W 001°22'0 0.0
2017-Sep-14 01:00N 44°50' W 001°22'0 0.0
2017-Sep-14 00:30N 44°50' W 001°22'0 0.0
2017-Sep-14 00:00N 44°50' W 001°22'0 0.0
2017-Sep-13 23:30N 44°50' W 001°22'0 0.0
2017-Sep-13 23:00N 44°50' W 001°22'0 0.0
2017-Sep-13 22:30N 44°50' W 001°22'0 0.0
2017-Sep-13 22:00N 44°50' W 001°22'0 0.0
2017-Sep-13 21:30N 44°50' W 001°22'0 0.0
2017-Sep-13 21:00N 44°50' W 001°22'0 0.0
2017-Sep-13 20:30N 44°50' W 001°22'0 0.0
2017-Sep-13 20:00N 44°50' W 001°22'0 0.0
2017-Sep-13 19:30N 44°50' W 001°22'0 0.0
2017-Sep-13 19:00N 44°50' W 001°22'0 0.0
2017-Sep-13 18:30N 44°50' W 001°22'0 0.1
2017-Sep-13 18:00N 44°50' W 001°22'0 0.0
2017-Sep-13 17:29N 44°50' W 001°22'0 0.0
2017-Sep-13 16:59N 44°50' W 001°22'0 0.0
2017-Sep-13 16:29N 44°50' W 001°22'0 0.0
2017-Sep-13 15:59N 44°50' W 001°22'0 0.0
2017-Sep-13 15:30N 44°50' W 001°22'0 0.0
2017-Sep-13 15:00N 44°50' W 001°22'1 2.1
2017-Sep-13 14:30N 44°50' W 001°24'0 0.5
2017-Sep-13 14:00N 44°50' W 001°23'0 0.8
2017-Sep-13 13:31N 44°50' W 001°23'1 1.8
2017-Sep-13 13:00N 44°49' W 001°22'4 7.7
2017-Sep-13 12:31N 44°45' W 001°20'4 7.7
2017-Sep-13 12:00N 44°42' W 001°19'4 8.0
2017-Sep-13 11:30N 44°38' W 001°19'4 7.4
2017-Sep-13 11:00N 44°34' W 001°17'4 8.7
2017-Sep-13 10:30N 44°38' W 001°14'4 8.2
2017-Sep-13 10:01N 44°40' W 001°09'1 1.2
2017-Sep-13 09:30N 44°39' W 001°09'0 0.1
2017-Sep-13 09:00N 44°39' W 001°09'0 0.0
2017-Sep-13 08:30N 44°39' W 001°09'0 0.0
2017-Sep-13 08:00N 44°39' W 001°09'  

Dump ship's entire track history